sensor_id;sensor_type;location;lat;lon;timestamp;P1;durP1;ratioP1;P2;durP2;ratioP2
69419;SDS011;56612;52.030;113.524;2022-12-18T00:01:57;28.70;;;9.63;;
69419;SDS011;56612;52.030;113.524;2022-12-18T00:05:04;40.47;;;14.30;;
69419;SDS011;56612;52.030;113.524;2022-12-18T00:08:09;32.03;;;10.10;;
69419;SDS011;56612;52.030;113.524;2022-12-18T00:11:17;37.40;;;10.80;;
69419;SDS011;56612;52.030;113.524;2022-12-18T00:14:23;35.92;;;11.13;;
69419;SDS011;56612;52.030;113.524;2022-12-18T00:17:26;41.23;;;12.83;;
69419;SDS011;56612;52.030;113.524;2022-12-18T00:20:29;32.53;;;13.23;;
69419;SDS011;56612;52.030;113.524;2022-12-18T00:23:33;42.53;;;13.38;;
69419;SDS011;56612;52.030;113.524;2022-12-18T00:26:38;52.87;;;15.40;;
69419;SDS011;56612;52.030;113.524;2022-12-18T00:29:42;36.58;;;12.23;;
69419;SDS011;56612;52.030;113.524;2022-12-18T00:32:45;23.67;;;8.50;;
69419;SDS011;56612;52.030;113.524;2022-12-18T00:35:48;66.20;;;18.85;;
69419;SDS011;56612;52.030;113.524;2022-12-18T00:38:55;38.53;;;10.15;;
69419;SDS011;56612;52.030;113.524;2022-12-18T00:41:59;34.63;;;13.00;;
69419;SDS011;56612;52.030;113.524;2022-12-18T00:45:25;36.42;;;13.65;;
69419;SDS011;56612;52.030;113.524;2022-12-18T00:48:31;49.63;;;15.20;;
69419;SDS011;56612;52.030;113.524;2022-12-18T00:51:35;41.65;;;14.40;;
69419;SDS011;56612;52.030;113.524;2022-12-18T00:54:38;57.20;;;14.88;;
69419;SDS011;56612;52.030;113.524;2022-12-18T00:57:42;41.27;;;14.83;;
69419;SDS011;56612;52.030;113.524;2022-12-18T01:00:46;73.43;;;22.33;;
69419;SDS011;56612;52.030;113.524;2022-12-18T01:03:49;48.83;;;17.02;;
69419;SDS011;56612;52.030;113.524;2022-12-18T01:06:54;57.08;;;19.10;;
69419;SDS011;56612;52.030;113.524;2022-12-18T01:09:58;67.35;;;18.67;;
69419;SDS011;56612;52.030;113.524;2022-12-18T01:13:01;52.95;;;15.48;;
69419;SDS011;56612;52.030;113.524;2022-12-18T01:16:05;62.75;;;21.05;;
69419;SDS011;56612;52.030;113.524;2022-12-18T01:19:09;57.53;;;17.20;;
69419;SDS011;56612;52.030;113.524;2022-12-18T01:22:12;60.70;;;19.92;;
69419;SDS011;56612;52.030;113.524;2022-12-18T01:25:16;65.93;;;21.88;;
69419;SDS011;56612;52.030;113.524;2022-12-18T01:28:19;50.03;;;16.10;;
69419;SDS011;56612;52.030;113.524;2022-12-18T01:31:26;40.67;;;17.23;;
69419;SDS011;56612;52.030;113.524;2022-12-18T01:34:32;64.13;;;19.05;;
69419;SDS011;56612;52.030;113.524;2022-12-18T01:37:38;44.05;;;16.55;;
69419;SDS011;56612;52.030;113.524;2022-12-18T01:40:41;67.10;;;21.73;;
69419;SDS011;56612;52.030;113.524;2022-12-18T01:43:55;48.42;;;19.38;;
69419;SDS011;56612;52.030;113.524;2022-12-18T01:47:00;62.40;;;19.63;;
69419;SDS011;56612;52.030;113.524;2022-12-18T01:50:17;38.87;;;15.47;;
69419;SDS011;56612;52.030;113.524;2022-12-18T01:53:33;35.75;;;15.25;;
69419;SDS011;56612;52.030;113.524;2022-12-18T01:56:37;48.65;;;16.27;;
69419;SDS011;56612;52.030;113.524;2022-12-18T01:59:41;62.37;;;17.87;;
69419;SDS011;56612;52.030;113.524;2022-12-18T02:02:48;39.05;;;15.75;;
69419;SDS011;56612;52.030;113.524;2022-12-18T02:09:20;49.72;;;19.30;;
69419;SDS011;56612;52.030;113.524;2022-12-18T02:12:38;79.57;;;26.20;;
69419;SDS011;56612;52.030;113.524;2022-12-18T02:16:26;69.72;;;26.20;;
69419;SDS011;56612;52.030;113.524;2022-12-18T02:19:55;74.60;;;26.23;;
69419;SDS011;56612;52.030;113.524;2022-12-18T02:26:32;67.97;;;23.13;;
69419;SDS011;56612;52.030;113.524;2022-12-18T02:29:51;66.70;;;22.27;;
69419;SDS011;56612;52.030;113.524;2022-12-18T02:33:04;54.20;;;20.03;;
69419;SDS011;56612;52.030;113.524;2022-12-18T02:36:09;78.72;;;24.58;;
69419;SDS011;56612;52.030;113.524;2022-12-18T02:39:16;84.90;;;30.30;;
69419;SDS011;56612;52.030;113.524;2022-12-18T02:42:31;90.03;;;32.13;;
69419;SDS011;56612;52.030;113.524;2022-12-18T02:45:48;59.72;;;20.95;;
69419;SDS011;56612;52.030;113.524;2022-12-18T02:49:01;58.90;;;18.67;;
69419;SDS011;56612;52.030;113.524;2022-12-18T02:55:47;68.33;;;21.97;;
69419;SDS011;56612;52.030;113.524;2022-12-18T02:59:06;39.15;;;16.67;;
69419;SDS011;56612;52.030;113.524;2022-12-18T03:05:50;65.00;;;21.60;;
69419;SDS011;56612;52.030;113.524;2022-12-18T03:09:01;23.05;;;10.05;;
69419;SDS011;56612;52.030;113.524;2022-12-18T03:15:29;48.10;;;18.15;;
69419;SDS011;56612;52.030;113.524;2022-12-18T03:18:44;53.92;;;20.60;;
69419;SDS011;56612;52.030;113.524;2022-12-18T03:21:51;53.08;;;20.15;;
69419;SDS011;56612;52.030;113.524;2022-12-18T03:25:00;63.05;;;24.50;;
69419;SDS011;56612;52.030;113.524;2022-12-18T03:28:06;107.03;;;30.67;;
69419;SDS011;56612;52.030;113.524;2022-12-18T03:31:15;104.88;;;38.22;;
69419;SDS011;56612;52.030;113.524;2022-12-18T03:34:25;97.50;;;31.05;;
69419;SDS011;56612;52.030;113.524;2022-12-18T03:37:36;92.53;;;35.90;;
69419;SDS011;56612;52.030;113.524;2022-12-18T03:47:05;110.30;;;41.22;;
69419;SDS011;56612;52.030;113.524;2022-12-18T03:50:18;123.60;;;39.53;;
69419;SDS011;56612;52.030;113.524;2022-12-18T03:53:28;148.32;;;49.25;;
69419;SDS011;56612;52.030;113.524;2022-12-18T03:56:48;123.65;;;43.83;;
69419;SDS011;56612;52.030;113.524;2022-12-18T03:59:59;112.57;;;44.53;;
69419;SDS011;56612;52.030;113.524;2022-12-18T04:03:14;113.07;;;39.55;;
69419;SDS011;56612;52.030;113.524;2022-12-18T04:06:28;124.15;;;43.10;;
69419;SDS011;56612;52.030;113.524;2022-12-18T04:09:35;109.87;;;37.73;;
69419;SDS011;56612;52.030;113.524;2022-12-18T04:12:43;86.35;;;29.38;;
69419;SDS011;56612;52.030;113.524;2022-12-18T04:15:48;90.30;;;31.45;;
69419;SDS011;56612;52.030;113.524;2022-12-18T04:18:53;81.68;;;29.00;;
69419;SDS011;56612;52.030;113.524;2022-12-18T04:21:59;65.60;;;24.45;;
69419;SDS011;56612;52.030;113.524;2022-12-18T04:25:06;69.90;;;25.67;;
69419;SDS011;56612;52.030;113.524;2022-12-18T04:28:13;60.67;;;23.15;;
69419;SDS011;56612;52.030;113.524;2022-12-18T04:31:17;64.23;;;21.10;;
69419;SDS011;56612;52.030;113.524;2022-12-18T04:34:21;72.95;;;21.48;;
69419;SDS011;56612;52.030;113.524;2022-12-18T04:37:27;42.90;;;15.75;;
69419;SDS011;56612;52.030;113.524;2022-12-18T04:40:31;54.47;;;18.43;;
69419;SDS011;56612;52.030;113.524;2022-12-18T04:43:38;72.18;;;25.13;;
69419;SDS011;56612;52.030;113.524;2022-12-18T04:46:43;75.15;;;25.58;;
69419;SDS011;56612;52.030;113.524;2022-12-18T04:49:46;62.42;;;19.20;;
69419;SDS011;56612;52.030;113.524;2022-12-18T04:52:49;68.45;;;22.50;;
69419;SDS011;56612;52.030;113.524;2022-12-18T04:59:25;68.47;;;22.13;;
69419;SDS011;56612;52.030;113.524;2022-12-18T05:02:28;55.37;;;21.77;;
69419;SDS011;56612;52.030;113.524;2022-12-18T05:05:34;65.13;;;23.52;;
69419;SDS011;56612;52.030;113.524;2022-12-18T05:08:38;62.28;;;20.58;;
69419;SDS011;56612;52.030;113.524;2022-12-18T05:11:42;49.08;;;19.10;;
69419;SDS011;56612;52.030;113.524;2022-12-18T05:14:48;75.28;;;22.55;;
69419;SDS011;56612;52.030;113.524;2022-12-18T05:17:52;67.60;;;23.83;;
69419;SDS011;56612;52.030;113.524;2022-12-18T05:20:55;60.03;;;17.75;;
69419;SDS011;56612;52.030;113.524;2022-12-18T05:23:59;73.67;;;25.60;;
69419;SDS011;56612;52.030;113.524;2022-12-18T05:27:03;85.28;;;26.08;;
69419;SDS011;56612;52.030;113.524;2022-12-18T05:30:06;72.68;;;25.77;;
69419;SDS011;56612;52.030;113.524;2022-12-18T05:33:11;91.63;;;30.40;;
69419;SDS011;56612;52.030;113.524;2022-12-18T05:36:14;133.37;;;41.43;;
69419;SDS011;56612;52.030;113.524;2022-12-18T05:39:17;113.63;;;31.95;;
69419;SDS011;56612;52.030;113.524;2022-12-18T05:42:22;66.28;;;23.98;;
69419;SDS011;56612;52.030;113.524;2022-12-18T05:45:26;88.55;;;28.77;;
69419;SDS011;56612;52.030;113.524;2022-12-18T05:48:30;70.77;;;27.83;;
69419;SDS011;56612;52.030;113.524;2022-12-18T05:51:34;85.78;;;25.83;;
69419;SDS011;56612;52.030;113.524;2022-12-18T05:54:38;94.97;;;30.75;;
69419;SDS011;56612;52.030;113.524;2022-12-18T05:57:42;96.93;;;32.47;;
69419;SDS011;56612;52.030;113.524;2022-12-18T06:00:46;99.07;;;30.75;;
69419;SDS011;56612;52.030;113.524;2022-12-18T06:03:49;96.25;;;30.65;;
69419;SDS011;56612;52.030;113.524;2022-12-18T06:06:53;96.43;;;31.75;;
69419;SDS011;56612;52.030;113.524;2022-12-18T06:09:57;91.38;;;26.95;;
69419;SDS011;56612;52.030;113.524;2022-12-18T06:13:01;86.25;;;28.08;;
69419;SDS011;56612;52.030;113.524;2022-12-18T06:16:06;96.90;;;33.35;;
69419;SDS011;56612;52.030;113.524;2022-12-18T06:19:13;80.17;;;26.30;;
69419;SDS011;56612;52.030;113.524;2022-12-18T06:22:18;77.78;;;26.63;;
69419;SDS011;56612;52.030;113.524;2022-12-18T06:25:22;97.10;;;33.25;;
69419;SDS011;56612;52.030;113.524;2022-12-18T06:28:26;101.45;;;33.00;;
69419;SDS011;56612;52.030;113.524;2022-12-18T06:31:30;100.03;;;29.80;;
69419;SDS011;56612;52.030;113.524;2022-12-18T06:34:33;88.13;;;28.33;;
69419;SDS011;56612;52.030;113.524;2022-12-18T06:37:39;74.47;;;23.23;;
69419;SDS011;56612;52.030;113.524;2022-12-18T06:40:43;57.00;;;20.23;;
69419;SDS011;56612;52.030;113.524;2022-12-18T06:43:48;96.63;;;36.15;;
69419;SDS011;56612;52.030;113.524;2022-12-18T06:46:54;78.05;;;26.95;;
69419;SDS011;56612;52.030;113.524;2022-12-18T06:49:58;83.23;;;28.57;;
69419;SDS011;56612;52.030;113.524;2022-12-18T06:53:01;67.10;;;21.13;;
69419;SDS011;56612;52.030;113.524;2022-12-18T06:56:06;88.00;;;25.23;;
69419;SDS011;56612;52.030;113.524;2022-12-18T06:59:12;62.92;;;24.30;;
69419;SDS011;56612;52.030;113.524;2022-12-18T07:02:17;78.43;;;25.70;;
69419;SDS011;56612;52.030;113.524;2022-12-18T07:05:21;97.93;;;30.70;;
69419;SDS011;56612;52.030;113.524;2022-12-18T07:08:26;85.45;;;29.05;;
69419;SDS011;56612;52.030;113.524;2022-12-18T07:11:32;106.38;;;31.38;;
69419;SDS011;56612;52.030;113.524;2022-12-18T07:14:36;71.43;;;22.92;;
69419;SDS011;56612;52.030;113.524;2022-12-18T07:17:39;85.47;;;25.65;;
69419;SDS011;56612;52.030;113.524;2022-12-18T07:20:43;82.17;;;26.37;;
69419;SDS011;56612;52.030;113.524;2022-12-18T07:23:49;97.75;;;29.35;;
69419;SDS011;56612;52.030;113.524;2022-12-18T07:26:52;90.38;;;30.83;;
69419;SDS011;56612;52.030;113.524;2022-12-18T07:29:55;111.63;;;32.17;;
69419;SDS011;56612;52.030;113.524;2022-12-18T07:32:59;107.97;;;33.53;;
69419;SDS011;56612;52.030;113.524;2022-12-18T07:36:04;96.88;;;31.17;;
69419;SDS011;56612;52.030;113.524;2022-12-18T07:39:10;107.32;;;35.15;;
69419;SDS011;56612;52.030;113.524;2022-12-18T07:42:15;112.45;;;36.50;;
69419;SDS011;56612;52.030;113.524;2022-12-18T07:45:33;95.60;;;33.17;;
69419;SDS011;56612;52.030;113.524;2022-12-18T07:48:37;84.65;;;29.42;;
69419;SDS011;56612;52.030;113.524;2022-12-18T07:51:41;91.05;;;30.70;;
69419;SDS011;56612;52.030;113.524;2022-12-18T07:54:45;82.65;;;28.83;;
69419;SDS011;56612;52.030;113.524;2022-12-18T07:57:52;111.03;;;35.37;;
69419;SDS011;56612;52.030;113.524;2022-12-18T08:01:05;108.25;;;37.55;;
69419;SDS011;56612;52.030;113.524;2022-12-18T08:04:12;120.20;;;33.83;;
69419;SDS011;56612;52.030;113.524;2022-12-18T08:07:15;101.85;;;30.58;;
69419;SDS011;56612;52.030;113.524;2022-12-18T08:10:18;87.50;;;27.83;;
69419;SDS011;56612;52.030;113.524;2022-12-18T08:13:23;74.68;;;26.88;;
69419;SDS011;56612;52.030;113.524;2022-12-18T08:16:27;96.80;;;29.77;;
69419;SDS011;56612;52.030;113.524;2022-12-18T08:19:31;89.75;;;28.70;;
69419;SDS011;56612;52.030;113.524;2022-12-18T08:22:35;80.93;;;27.43;;
69419;SDS011;56612;52.030;113.524;2022-12-18T08:25:40;80.28;;;29.35;;
69419;SDS011;56612;52.030;113.524;2022-12-18T08:28:43;93.50;;;30.15;;
69419;SDS011;56612;52.030;113.524;2022-12-18T08:31:47;82.30;;;30.20;;
69419;SDS011;56612;52.030;113.524;2022-12-18T08:34:51;82.97;;;31.38;;
69419;SDS011;56612;52.030;113.524;2022-12-18T08:37:54;133.15;;;34.88;;
69419;SDS011;56612;52.030;113.524;2022-12-18T08:40:58;51.88;;;23.20;;
69419;SDS011;56612;52.030;113.524;2022-12-18T08:44:03;99.37;;;27.53;;
69419;SDS011;56612;52.030;113.524;2022-12-18T08:47:24;96.63;;;32.17;;
69419;SDS011;56612;52.030;113.524;2022-12-18T08:50:28;91.85;;;30.25;;
69419;SDS011;56612;52.030;113.524;2022-12-18T08:53:33;99.57;;;32.77;;
69419;SDS011;56612;52.030;113.524;2022-12-18T08:56:37;96.40;;;31.38;;
69419;SDS011;56612;52.030;113.524;2022-12-18T08:59:41;105.45;;;35.00;;
69419;SDS011;56612;52.030;113.524;2022-12-18T09:02:44;95.07;;;32.83;;
69419;SDS011;56612;52.030;113.524;2022-12-18T09:05:47;102.32;;;36.13;;
69419;SDS011;56612;52.030;113.524;2022-12-18T09:08:51;101.18;;;35.22;;
69419;SDS011;56612;52.030;113.524;2022-12-18T09:11:54;127.65;;;40.25;;
69419;SDS011;56612;52.030;113.524;2022-12-18T09:14:58;71.40;;;24.60;;
69419;SDS011;56612;52.030;113.524;2022-12-18T09:18:02;128.68;;;40.55;;
69419;SDS011;56612;52.030;113.524;2022-12-18T09:21:10;157.70;;;51.72;;
69419;SDS011;56612;52.030;113.524;2022-12-18T09:24:14;84.97;;;35.37;;
69419;SDS011;56612;52.030;113.524;2022-12-18T09:27:19;96.68;;;37.47;;
69419;SDS011;56612;52.030;113.524;2022-12-18T09:30:23;121.97;;;41.38;;
69419;SDS011;56612;52.030;113.524;2022-12-18T09:33:27;151.85;;;49.35;;
69419;SDS011;56612;52.030;113.524;2022-12-18T09:36:30;167.30;;;55.00;;
69419;SDS011;56612;52.030;113.524;2022-12-18T09:39:33;122.70;;;44.67;;
69419;SDS011;56612;52.030;113.524;2022-12-18T09:42:36;122.00;;;42.92;;
69419;SDS011;56612;52.030;113.524;2022-12-18T09:45:43;132.90;;;42.20;;
69419;SDS011;56612;52.030;113.524;2022-12-18T09:48:50;132.95;;;46.63;;
69419;SDS011;56612;52.030;113.524;2022-12-18T09:55:36;158.10;;;45.05;;
69419;SDS011;56612;52.030;113.524;2022-12-18T09:58:48;150.05;;;56.42;;
69419;SDS011;56612;52.030;113.524;2022-12-18T10:02:00;158.90;;;51.17;;
69419;SDS011;56612;52.030;113.524;2022-12-18T10:12:32;162.88;;;51.25;;
69419;SDS011;56612;52.030;113.524;2022-12-18T10:28:52;148.55;;;55.35;;
69419;SDS011;56612;52.030;113.524;2022-12-18T10:32:01;201.93;;;70.72;;
69419;SDS011;56612;52.030;113.524;2022-12-18T10:35:07;123.18;;;46.47;;
69419;SDS011;56612;52.030;113.524;2022-12-18T10:41:28;263.10;;;92.60;;
69419;SDS011;56612;52.030;113.524;2022-12-18T10:44:33;229.32;;;81.20;;
69419;SDS011;56612;52.030;113.524;2022-12-18T10:47:41;222.32;;;74.10;;
69419;SDS011;56612;52.030;113.524;2022-12-18T10:50:50;231.83;;;83.40;;
69419;SDS011;56612;52.030;113.524;2022-12-18T10:57:39;198.55;;;78.50;;
69419;SDS011;56612;52.030;113.524;2022-12-18T11:00:44;208.25;;;64.60;;
69419;SDS011;56612;52.030;113.524;2022-12-18T11:07:04;176.98;;;62.53;;
69419;SDS011;56612;52.030;113.524;2022-12-18T11:10:15;157.38;;;59.03;;
69419;SDS011;56612;52.030;113.524;2022-12-18T11:13:21;164.10;;;52.83;;
69419;SDS011;56612;52.030;113.524;2022-12-18T11:16:27;125.38;;;45.58;;
69419;SDS011;56612;52.030;113.524;2022-12-18T11:19:35;143.88;;;50.38;;
69419;SDS011;56612;52.030;113.524;2022-12-18T11:22:40;183.10;;;65.00;;
69419;SDS011;56612;52.030;113.524;2022-12-18T11:25:50;131.88;;;52.53;;
69419;SDS011;56612;52.030;113.524;2022-12-18T11:29:09;136.73;;;46.97;;
69419;SDS011;56612;52.030;113.524;2022-12-18T11:32:25;175.05;;;63.08;;
69419;SDS011;56612;52.030;113.524;2022-12-18T11:35:38;408.65;;;139.00;;
69419;SDS011;56612;52.030;113.524;2022-12-18T11:38:54;259.50;;;92.55;;
69419;SDS011;56612;52.030;113.524;2022-12-18T11:42:15;271.92;;;93.97;;
69419;SDS011;56612;52.030;113.524;2022-12-18T11:45:51;217.60;;;67.60;;
69419;SDS011;56612;52.030;113.524;2022-12-18T11:48:59;319.17;;;113.78;;
69419;SDS011;56612;52.030;113.524;2022-12-18T11:52:15;280.02;;;98.93;;
69419;SDS011;56612;52.030;113.524;2022-12-18T12:05:25;275.35;;;97.78;;
69419;SDS011;56612;52.030;113.524;2022-12-18T12:15:40;165.45;;;59.53;;
69419;SDS011;56612;52.030;113.524;2022-12-18T12:19:20;112.60;;;46.13;;
69419;SDS011;56612;52.030;113.524;2022-12-18T12:32:15;265.80;;;86.65;;
69419;SDS011;56612;52.030;113.524;2022-12-18T12:35:44;226.18;;;78.75;;
69419;SDS011;56612;52.030;113.524;2022-12-18T12:39:18;102.80;;;42.92;;
69419;SDS011;56612;52.030;113.524;2022-12-18T12:45:48;199.65;;;68.07;;
69419;SDS011;56612;52.030;113.524;2022-12-18T12:48:56;104.68;;;39.08;;
69419;SDS011;56612;52.030;113.524;2022-12-18T12:52:06;172.77;;;56.53;;
69419;SDS011;56612;52.030;113.524;2022-12-18T12:55:32;219.07;;;64.63;;
69419;SDS011;56612;52.030;113.524;2022-12-18T13:08:29;156.85;;;53.20;;
69419;SDS011;56612;52.030;113.524;2022-12-18T13:11:41;287.13;;;92.35;;
69419;SDS011;56612;52.030;113.524;2022-12-18T13:15:20;179.97;;;61.73;;
69419;SDS011;56612;52.030;113.524;2022-12-18T13:18:26;214.48;;;70.18;;
69419;SDS011;56612;52.030;113.524;2022-12-18T13:21:34;162.93;;;54.33;;
69419;SDS011;56612;52.030;113.524;2022-12-18T13:24:38;156.80;;;50.00;;
69419;SDS011;56612;52.030;113.524;2022-12-18T13:30:48;136.10;;;47.97;;
69419;SDS011;56612;52.030;113.524;2022-12-18T13:34:09;186.15;;;61.65;;
69419;SDS011;56612;52.030;113.524;2022-12-18T13:37:35;109.33;;;40.00;;
69419;SDS011;56612;52.030;113.524;2022-12-18T13:44:10;266.08;;;90.50;;
69419;SDS011;56612;52.030;113.524;2022-12-18T13:50:40;91.47;;;36.67;;
69419;SDS011;56612;52.030;113.524;2022-12-18T13:53:44;81.75;;;31.50;;
69419;SDS011;56612;52.030;113.524;2022-12-18T13:56:54;107.13;;;42.97;;
69419;SDS011;56612;52.030;113.524;2022-12-18T13:59:58;113.95;;;39.63;;
69419;SDS011;56612;52.030;113.524;2022-12-18T14:03:24;135.70;;;50.17;;
69419;SDS011;56612;52.030;113.524;2022-12-18T14:06:32;128.52;;;43.33;;
69419;SDS011;56612;52.030;113.524;2022-12-18T14:09:39;87.53;;;34.87;;
69419;SDS011;56612;52.030;113.524;2022-12-18T14:12:50;137.60;;;47.35;;
69419;SDS011;56612;52.030;113.524;2022-12-18T14:16:05;100.25;;;32.47;;
69419;SDS011;56612;52.030;113.524;2022-12-18T14:19:12;87.67;;;34.80;;
69419;SDS011;56612;52.030;113.524;2022-12-18T14:22:18;95.82;;;38.30;;
69419;SDS011;56612;52.030;113.524;2022-12-18T14:25:24;136.98;;;52.13;;
69419;SDS011;56612;52.030;113.524;2022-12-18T14:28:29;215.50;;;70.25;;
69419;SDS011;56612;52.030;113.524;2022-12-18T14:31:33;189.07;;;59.38;;
69419;SDS011;56612;52.030;113.524;2022-12-18T14:34:37;129.43;;;40.45;;
69419;SDS011;56612;52.030;113.524;2022-12-18T14:37:41;242.35;;;83.22;;
69419;SDS011;56612;52.030;113.524;2022-12-18T14:40:44;202.80;;;72.63;;
69419;SDS011;56612;52.030;113.524;2022-12-18T14:43:48;225.93;;;78.43;;
69419;SDS011;56612;52.030;113.524;2022-12-18T14:46:53;177.45;;;64.15;;
69419;SDS011;56612;52.030;113.524;2022-12-18T14:49:57;210.87;;;71.77;;
69419;SDS011;56612;52.030;113.524;2022-12-18T14:53:00;239.57;;;84.47;;
69419;SDS011;56612;52.030;113.524;2022-12-18T14:59:21;195.55;;;60.80;;
69419;SDS011;56612;52.030;113.524;2022-12-18T15:02:28;134.15;;;42.28;;
69419;SDS011;56612;52.030;113.524;2022-12-18T15:05:31;175.95;;;60.38;;
69419;SDS011;56612;52.030;113.524;2022-12-18T15:08:36;151.35;;;50.47;;
69419;SDS011;56612;52.030;113.524;2022-12-18T15:14:43;167.57;;;49.83;;
69419;SDS011;56612;52.030;113.524;2022-12-18T15:17:46;191.85;;;64.85;;
69419;SDS011;56612;52.030;113.524;2022-12-18T15:20:54;103.20;;;43.50;;
69419;SDS011;56612;52.030;113.524;2022-12-18T15:23:59;104.43;;;40.97;;
69419;SDS011;56612;52.030;113.524;2022-12-18T15:27:02;124.75;;;36.33;;
69419;SDS011;56612;52.030;113.524;2022-12-18T15:33:17;78.70;;;29.67;;
69419;SDS011;56612;52.030;113.524;2022-12-18T15:36:27;87.28;;;36.92;;
69419;SDS011;56612;52.030;113.524;2022-12-18T15:39:32;75.07;;;27.10;;
69419;SDS011;56612;52.030;113.524;2022-12-18T15:42:35;78.57;;;28.37;;
69419;SDS011;56612;52.030;113.524;2022-12-18T15:45:57;73.22;;;26.73;;
69419;SDS011;56612;52.030;113.524;2022-12-18T15:49:02;119.00;;;35.72;;
69419;SDS011;56612;52.030;113.524;2022-12-18T15:52:05;133.43;;;46.60;;
69419;SDS011;56612;52.030;113.524;2022-12-18T15:55:17;133.23;;;43.95;;
69419;SDS011;56612;52.030;113.524;2022-12-18T15:58:42;95.18;;;30.67;;
69419;SDS011;56612;52.030;113.524;2022-12-18T16:01:47;119.82;;;33.80;;
69419;SDS011;56612;52.030;113.524;2022-12-18T16:04:53;84.80;;;35.05;;
69419;SDS011;56612;52.030;113.524;2022-12-18T16:07:57;95.97;;;36.75;;
69419;SDS011;56612;52.030;113.524;2022-12-18T16:11:01;180.95;;;53.75;;
69419;SDS011;56612;52.030;113.524;2022-12-18T16:14:06;113.63;;;36.73;;
69419;SDS011;56612;52.030;113.524;2022-12-18T16:17:14;133.80;;;36.75;;
69419;SDS011;56612;52.030;113.524;2022-12-18T16:20:21;97.43;;;36.70;;
69419;SDS011;56612;52.030;113.524;2022-12-18T16:23:25;122.83;;;40.37;;
69419;SDS011;56612;52.030;113.524;2022-12-18T16:26:30;180.10;;;53.60;;
69419;SDS011;56612;52.030;113.524;2022-12-18T16:29:34;159.55;;;46.05;;
69419;SDS011;56612;52.030;113.524;2022-12-18T16:32:37;219.30;;;59.45;;
69419;SDS011;56612;52.030;113.524;2022-12-18T16:35:41;150.02;;;53.15;;
69419;SDS011;56612;52.030;113.524;2022-12-18T16:38:45;117.20;;;45.45;;
69419;SDS011;56612;52.030;113.524;2022-12-18T16:41:48;246.75;;;68.93;;
69419;SDS011;56612;52.030;113.524;2022-12-18T16:44:52;181.43;;;61.50;;
69419;SDS011;56612;52.030;113.524;2022-12-18T16:47:56;149.60;;;47.83;;
69419;SDS011;56612;52.030;113.524;2022-12-18T16:51:00;98.68;;;40.35;;
69419;SDS011;56612;52.030;113.524;2022-12-18T16:54:04;144.23;;;47.87;;
69419;SDS011;56612;52.030;113.524;2022-12-18T16:57:14;97.20;;;38.00;;
69419;SDS011;56612;52.030;113.524;2022-12-18T17:00:19;145.98;;;48.60;;
69419;SDS011;56612;52.030;113.524;2022-12-18T17:03:23;78.60;;;34.65;;
69419;SDS011;56612;52.030;113.524;2022-12-18T17:06:29;104.90;;;38.65;;
69419;SDS011;56612;52.030;113.524;2022-12-18T17:09:34;122.93;;;48.20;;
69419;SDS011;56612;52.030;113.524;2022-12-18T17:12:38;89.95;;;39.95;;
69419;SDS011;56612;52.030;113.524;2022-12-18T17:15:41;114.93;;;39.63;;
69419;SDS011;56612;52.030;113.524;2022-12-18T17:18:45;129.63;;;37.08;;
69419;SDS011;56612;52.030;113.524;2022-12-18T17:21:49;148.02;;;45.35;;
69419;SDS011;56612;52.030;113.524;2022-12-18T17:24:53;248.23;;;75.37;;
69419;SDS011;56612;52.030;113.524;2022-12-18T17:27:56;185.65;;;61.63;;
69419;SDS011;56612;52.030;113.524;2022-12-18T17:31:00;122.70;;;40.65;;
69419;SDS011;56612;52.030;113.524;2022-12-18T17:34:03;103.90;;;40.33;;
69419;SDS011;56612;52.030;113.524;2022-12-18T17:37:07;149.93;;;48.30;;
69419;SDS011;56612;52.030;113.524;2022-12-18T17:40:11;123.38;;;44.33;;
69419;SDS011;56612;52.030;113.524;2022-12-18T17:43:14;129.00;;;43.80;;
69419;SDS011;56612;52.030;113.524;2022-12-18T17:46:17;93.80;;;35.10;;
69419;SDS011;56612;52.030;113.524;2022-12-18T17:49:22;111.05;;;38.92;;
69419;SDS011;56612;52.030;113.524;2022-12-18T17:52:25;121.05;;;38.13;;
69419;SDS011;56612;52.030;113.524;2022-12-18T17:55:29;84.07;;;34.90;;
69419;SDS011;56612;52.030;113.524;2022-12-18T17:58:37;110.40;;;39.00;;
69419;SDS011;56612;52.030;113.524;2022-12-18T18:01:41;180.95;;;57.33;;
69419;SDS011;56612;52.030;113.524;2022-12-18T18:04:47;125.65;;;44.33;;
69419;SDS011;56612;52.030;113.524;2022-12-18T18:07:50;185.85;;;58.10;;
69419;SDS011;56612;52.030;113.524;2022-12-18T18:10:54;116.20;;;45.70;;
69419;SDS011;56612;52.030;113.524;2022-12-18T18:14:19;89.88;;;32.67;;
69419;SDS011;56612;52.030;113.524;2022-12-18T18:17:23;108.07;;;33.60;;
69419;SDS011;56612;52.030;113.524;2022-12-18T18:20:26;135.82;;;40.65;;
69419;SDS011;56612;52.030;113.524;2022-12-18T18:23:32;83.47;;;30.15;;
69419;SDS011;56612;52.030;113.524;2022-12-18T18:26:36;92.03;;;34.00;;
69419;SDS011;56612;52.030;113.524;2022-12-18T18:29:40;105.88;;;35.17;;
69419;SDS011;56612;52.030;113.524;2022-12-18T18:32:43;171.00;;;44.15;;
69419;SDS011;56612;52.030;113.524;2022-12-18T18:35:46;91.32;;;29.83;;
69419;SDS011;56612;52.030;113.524;2022-12-18T18:38:57;78.82;;;28.73;;
69419;SDS011;56612;52.030;113.524;2022-12-18T18:42:02;87.78;;;31.52;;
69419;SDS011;56612;52.030;113.524;2022-12-18T18:45:06;137.65;;;42.95;;
69419;SDS011;56612;52.030;113.524;2022-12-18T18:48:10;134.73;;;38.53;;
69419;SDS011;56612;52.030;113.524;2022-12-18T18:51:16;124.97;;;40.92;;
69419;SDS011;56612;52.030;113.524;2022-12-18T18:54:22;158.02;;;47.95;;
69419;SDS011;56612;52.030;113.524;2022-12-18T18:57:27;107.43;;;36.80;;
69419;SDS011;56612;52.030;113.524;2022-12-18T19:00:32;97.53;;;32.33;;
69419;SDS011;56612;52.030;113.524;2022-12-18T19:03:36;78.38;;;29.02;;
69419;SDS011;56612;52.030;113.524;2022-12-18T19:06:40;81.50;;;28.80;;
69419;SDS011;56612;52.030;113.524;2022-12-18T19:09:44;52.88;;;24.88;;
69419;SDS011;56612;52.030;113.524;2022-12-18T19:12:53;81.57;;;24.88;;
69419;SDS011;56612;52.030;113.524;2022-12-18T19:16:17;103.50;;;39.75;;
69419;SDS011;56612;52.030;113.524;2022-12-18T19:19:20;93.37;;;27.70;;
69419;SDS011;56612;52.030;113.524;2022-12-18T19:22:23;128.57;;;40.58;;
69419;SDS011;56612;52.030;113.524;2022-12-18T19:25:27;88.10;;;24.67;;
69419;SDS011;56612;52.030;113.524;2022-12-18T19:28:43;64.17;;;29.17;;
69419;SDS011;56612;52.030;113.524;2022-12-18T19:31:47;82.85;;;28.77;;
69419;SDS011;56612;52.030;113.524;2022-12-18T19:34:52;137.43;;;36.30;;
69419;SDS011;56612;52.030;113.524;2022-12-18T19:37:55;45.75;;;24.45;;